sensor_id;sensor_type;location;lat;lon;timestamp;P1;durP1;ratioP1;P2;durP2;ratioP2
4833;SDS011;12895;51.064;7.028;2024-03-07T00:02:37;43.10;;;30.90;;
4833;SDS011;12895;51.064;7.028;2024-03-07T00:05:24;39.47;;;27.43;;
4833;SDS011;12895;51.064;7.028;2024-03-07T00:08:12;48.13;;;29.80;;
4833;SDS011;12895;51.064;7.028;2024-03-07T00:10:59;42.03;;;27.83;;
4833;SDS011;12895;51.064;7.028;2024-03-07T00:13:46;39.97;;;28.17;;
4833;SDS011;12895;51.064;7.028;2024-03-07T00:16:34;44.57;;;29.80;;
4833;SDS011;12895;51.064;7.028;2024-03-07T00:19:21;46.97;;;30.10;;
4833;SDS011;12895;51.064;7.028;2024-03-07T00:22:11;41.57;;;28.47;;
4833;SDS011;12895;51.064;7.028;2024-03-07T00:24:58;44.00;;;28.67;;
4833;SDS011;12895;51.064;7.028;2024-03-07T00:27:45;43.30;;;28.33;;
4833;SDS011;12895;51.064;7.028;2024-03-07T00:30:32;43.90;;;29.20;;
4833;SDS011;12895;51.064;7.028;2024-03-07T00:33:21;43.90;;;28.53;;
4833;SDS011;12895;51.064;7.028;2024-03-07T00:36:08;44.33;;;28.97;;
4833;SDS011;12895;51.064;7.028;2024-03-07T00:38:55;45.00;;;28.17;;
4833;SDS011;12895;51.064;7.028;2024-03-07T00:41:42;43.00;;;26.80;;
4833;SDS011;12895;51.064;7.028;2024-03-07T00:44:29;45.60;;;28.80;;
4833;SDS011;12895;51.064;7.028;2024-03-07T00:47:16;45.13;;;27.87;;
4833;SDS011;12895;51.064;7.028;2024-03-07T00:50:06;44.40;;;27.30;;
4833;SDS011;12895;51.064;7.028;2024-03-07T00:52:54;46.40;;;27.17;;
4833;SDS011;12895;51.064;7.028;2024-03-07T00:55:41;43.50;;;27.50;;
4833;SDS011;12895;51.064;7.028;2024-03-07T00:58:29;42.43;;;28.73;;
4833;SDS011;12895;51.064;7.028;2024-03-07T01:01:16;43.73;;;27.33;;
4833;SDS011;12895;51.064;7.028;2024-03-07T01:04:04;43.47;;;28.47;;
4833;SDS011;12895;51.064;7.028;2024-03-07T01:06:53;38.77;;;25.53;;
4833;SDS011;12895;51.064;7.028;2024-03-07T01:09:40;41.67;;;25.40;;
4833;SDS011;12895;51.064;7.028;2024-03-07T01:12:27;44.83;;;28.10;;
4833;SDS011;12895;51.064;7.028;2024-03-07T01:15:16;45.40;;;26.13;;
4833;SDS011;12895;51.064;7.028;2024-03-07T01:18:05;39.60;;;26.30;;
4833;SDS011;12895;51.064;7.028;2024-03-07T01:20:52;45.40;;;27.77;;
4833;SDS011;12895;51.064;7.028;2024-03-07T01:23:41;47.80;;;28.93;;
4833;SDS011;12895;51.064;7.028;2024-03-07T01:26:29;40.73;;;27.00;;
4833;SDS011;12895;51.064;7.028;2024-03-07T01:29:16;40.30;;;26.53;;
4833;SDS011;12895;51.064;7.028;2024-03-07T01:32:04;41.27;;;27.10;;
4833;SDS011;12895;51.064;7.028;2024-03-07T01:34:51;42.67;;;27.53;;
4833;SDS011;12895;51.064;7.028;2024-03-07T01:37:38;41.97;;;27.47;;
4833;SDS011;12895;51.064;7.028;2024-03-07T01:40:27;40.13;;;26.30;;
4833;SDS011;12895;51.064;7.028;2024-03-07T01:43:14;46.40;;;27.20;;
4833;SDS011;12895;51.064;7.028;2024-03-07T01:46:01;40.53;;;25.90;;
4833;SDS011;12895;51.064;7.028;2024-03-07T01:48:48;47.33;;;28.17;;
4833;SDS011;12895;51.064;7.028;2024-03-07T01:51:35;40.43;;;26.50;;
4833;SDS011;12895;51.064;7.028;2024-03-07T01:54:23;43.13;;;27.17;;
4833;SDS011;12895;51.064;7.028;2024-03-07T01:57:11;41.83;;;26.70;;
4833;SDS011;12895;51.064;7.028;2024-03-07T01:59:59;43.53;;;26.80;;
4833;SDS011;12895;51.064;7.028;2024-03-07T02:02:52;38.50;;;26.63;;
4833;SDS011;12895;51.064;7.028;2024-03-07T02:05:39;41.33;;;26.67;;
4833;SDS011;12895;51.064;7.028;2024-03-07T02:08:27;41.63;;;27.30;;
4833;SDS011;12895;51.064;7.028;2024-03-07T02:11:14;36.93;;;25.00;;
4833;SDS011;12895;51.064;7.028;2024-03-07T02:14:02;37.87;;;25.37;;
4833;SDS011;12895;51.064;7.028;2024-03-07T02:16:49;40.03;;;26.60;;
4833;SDS011;12895;51.064;7.028;2024-03-07T02:19:36;38.27;;;26.20;;
4833;SDS011;12895;51.064;7.028;2024-03-07T02:22:25;36.23;;;25.33;;
4833;SDS011;12895;51.064;7.028;2024-03-07T02:25:12;39.40;;;25.47;;
4833;SDS011;12895;51.064;7.028;2024-03-07T02:28:00;44.83;;;29.43;;
4833;SDS011;12895;51.064;7.028;2024-03-07T02:30:50;38.13;;;25.33;;
4833;SDS011;12895;51.064;7.028;2024-03-07T02:33:37;41.47;;;25.93;;
4833;SDS011;12895;51.064;7.028;2024-03-07T02:36:25;40.57;;;26.33;;
4833;SDS011;12895;51.064;7.028;2024-03-07T02:39:14;39.13;;;26.80;;
4833;SDS011;12895;51.064;7.028;2024-03-07T02:42:02;37.10;;;25.33;;
4833;SDS011;12895;51.064;7.028;2024-03-07T02:44:49;38.83;;;25.27;;
4833;SDS011;12895;51.064;7.028;2024-03-07T02:47:38;39.83;;;27.20;;
4833;SDS011;12895;51.064;7.028;2024-03-07T02:50:27;37.57;;;24.37;;
4833;SDS011;12895;51.064;7.028;2024-03-07T02:53:14;36.77;;;24.97;;
4833;SDS011;12895;51.064;7.028;2024-03-07T02:56:02;39.43;;;25.13;;
4833;SDS011;12895;51.064;7.028;2024-03-07T02:58:53;34.30;;;27.00;;
4833;SDS011;12895;51.064;7.028;2024-03-07T03:01:40;37.60;;;25.47;;
4833;SDS011;12895;51.064;7.028;2024-03-07T03:04:27;40.27;;;26.43;;
4833;SDS011;12895;51.064;7.028;2024-03-07T03:07:14;35.57;;;23.90;;
4833;SDS011;12895;51.064;7.028;2024-03-07T03:10:03;39.47;;;25.53;;
4833;SDS011;12895;51.064;7.028;2024-03-07T03:12:56;36.87;;;25.30;;
4833;SDS011;12895;51.064;7.028;2024-03-07T03:15:44;36.87;;;24.87;;
4833;SDS011;12895;51.064;7.028;2024-03-07T03:18:33;39.87;;;26.80;;
4833;SDS011;12895;51.064;7.028;2024-03-07T03:21:20;37.57;;;25.13;;
4833;SDS011;12895;51.064;7.028;2024-03-07T03:24:08;32.87;;;23.93;;
4833;SDS011;12895;51.064;7.028;2024-03-07T03:26:55;40.40;;;25.70;;
4833;SDS011;12895;51.064;7.028;2024-03-07T03:29:44;36.43;;;25.90;;
4833;SDS011;12895;51.064;7.028;2024-03-07T03:32:31;37.17;;;26.20;;
4833;SDS011;12895;51.064;7.028;2024-03-07T03:35:18;39.73;;;26.17;;
4833;SDS011;12895;51.064;7.028;2024-03-07T03:38:07;36.40;;;25.67;;
4833;SDS011;12895;51.064;7.028;2024-03-07T03:40:55;34.47;;;25.53;;
4833;SDS011;12895;51.064;7.028;2024-03-07T03:43:42;38.60;;;25.27;;
4833;SDS011;12895;51.064;7.028;2024-03-07T03:46:31;34.63;;;25.27;;
4833;SDS011;12895;51.064;7.028;2024-03-07T03:49:17;39.53;;;27.93;;
4833;SDS011;12895;51.064;7.028;2024-03-07T03:52:05;35.97;;;26.70;;
4833;SDS011;12895;51.064;7.028;2024-03-07T03:54:52;37.57;;;26.57;;
4833;SDS011;12895;51.064;7.028;2024-03-07T03:57:40;34.80;;;24.10;;
4833;SDS011;12895;51.064;7.028;2024-03-07T04:00:28;39.27;;;27.90;;
4833;SDS011;12895;51.064;7.028;2024-03-07T04:03:16;37.13;;;25.50;;
4833;SDS011;12895;51.064;7.028;2024-03-07T04:06:03;34.80;;;25.40;;
4833;SDS011;12895;51.064;7.028;2024-03-07T04:08:50;34.20;;;24.27;;
4833;SDS011;12895;51.064;7.028;2024-03-07T04:11:39;39.93;;;24.77;;
4833;SDS011;12895;51.064;7.028;2024-03-07T04:14:27;37.73;;;25.33;;
4833;SDS011;12895;51.064;7.028;2024-03-07T04:17:18;33.97;;;23.83;;
4833;SDS011;12895;51.064;7.028;2024-03-07T04:20:08;38.20;;;26.00;;
4833;SDS011;12895;51.064;7.028;2024-03-07T04:22:56;40.77;;;26.53;;
4833;SDS011;12895;51.064;7.028;2024-03-07T04:25:45;39.23;;;25.80;;
4833;SDS011;12895;51.064;7.028;2024-03-07T04:28:34;33.77;;;23.60;;
4833;SDS011;12895;51.064;7.028;2024-03-07T04:31:21;35.10;;;24.80;;
4833;SDS011;12895;51.064;7.028;2024-03-07T04:34:08;37.73;;;25.70;;
4833;SDS011;12895;51.064;7.028;2024-03-07T04:36:56;38.10;;;27.87;;
4833;SDS011;12895;51.064;7.028;2024-03-07T04:39:44;34.87;;;24.77;;
4833;SDS011;12895;51.064;7.028;2024-03-07T04:42:31;40.37;;;26.90;;
4833;SDS011;12895;51.064;7.028;2024-03-07T04:45:18;35.80;;;25.17;;
4833;SDS011;12895;51.064;7.028;2024-03-07T04:48:07;37.63;;;25.53;;
4833;SDS011;12895;51.064;7.028;2024-03-07T04:50:54;33.53;;;24.33;;
4833;SDS011;12895;51.064;7.028;2024-03-07T04:53:44;37.50;;;26.60;;
4833;SDS011;12895;51.064;7.028;2024-03-07T04:56:31;38.30;;;25.90;;
4833;SDS011;12895;51.064;7.028;2024-03-07T04:59:18;39.90;;;26.90;;
4833;SDS011;12895;51.064;7.028;2024-03-07T05:02:06;36.77;;;25.87;;
4833;SDS011;12895;51.064;7.028;2024-03-07T05:04:54;36.80;;;24.90;;
4833;SDS011;12895;51.064;7.028;2024-03-07T05:07:41;39.30;;;26.43;;
4833;SDS011;12895;51.064;7.028;2024-03-07T05:10:29;39.10;;;25.20;;
4833;SDS011;12895;51.064;7.028;2024-03-07T05:13:16;37.37;;;25.70;;
4833;SDS011;12895;51.064;7.028;2024-03-07T05:16:03;34.37;;;26.03;;
4833;SDS011;12895;51.064;7.028;2024-03-07T05:18:51;39.43;;;25.87;;
4833;SDS011;12895;51.064;7.028;2024-03-07T05:21:38;36.37;;;25.57;;
4833;SDS011;12895;51.064;7.028;2024-03-07T05:24:26;41.00;;;26.47;;
4833;SDS011;12895;51.064;7.028;2024-03-07T05:27:14;39.10;;;26.13;;
4833;SDS011;12895;51.064;7.028;2024-03-07T05:30:01;40.30;;;27.40;;
4833;SDS011;12895;51.064;7.028;2024-03-07T05:32:49;39.33;;;26.30;;
4833;SDS011;12895;51.064;7.028;2024-03-07T05:35:36;39.60;;;26.17;;
4833;SDS011;12895;51.064;7.028;2024-03-07T05:38:23;39.53;;;26.23;;
4833;SDS011;12895;51.064;7.028;2024-03-07T05:41:14;43.10;;;28.03;;
4833;SDS011;12895;51.064;7.028;2024-03-07T05:44:02;39.43;;;27.13;;
4833;SDS011;12895;51.064;7.028;2024-03-07T05:46:50;38.77;;;26.37;;
4833;SDS011;12895;51.064;7.028;2024-03-07T05:49:37;39.97;;;27.50;;
4833;SDS011;12895;51.064;7.028;2024-03-07T05:52:24;40.80;;;27.40;;
4833;SDS011;12895;51.064;7.028;2024-03-07T05:55:11;37.93;;;26.07;;
4833;SDS011;12895;51.064;7.028;2024-03-07T05:57:58;40.00;;;28.03;;
4833;SDS011;12895;51.064;7.028;2024-03-07T06:00:46;39.83;;;26.70;;
4833;SDS011;12895;51.064;7.028;2024-03-07T06:03:35;38.10;;;25.73;;
4833;SDS011;12895;51.064;7.028;2024-03-07T06:06:22;42.77;;;27.30;;
4833;SDS011;12895;51.064;7.028;2024-03-07T06:09:09;41.23;;;28.90;;
4833;SDS011;12895;51.064;7.028;2024-03-07T06:11:59;43.70;;;28.67;;
4833;SDS011;12895;51.064;7.028;2024-03-07T06:14:49;40.57;;;26.27;;
4833;SDS011;12895;51.064;7.028;2024-03-07T06:17:40;39.17;;;25.57;;
4833;SDS011;12895;51.064;7.028;2024-03-07T06:20:33;41.93;;;26.00;;
4833;SDS011;12895;51.064;7.028;2024-03-07T06:23:24;40.07;;;26.40;;
4833;SDS011;12895;51.064;7.028;2024-03-07T06:26:14;39.17;;;26.97;;
4833;SDS011;12895;51.064;7.028;2024-03-07T06:29:12;42.67;;;26.90;;
4833;SDS011;12895;51.064;7.028;2024-03-07T06:32:01;40.43;;;28.83;;
4833;SDS011;12895;51.064;7.028;2024-03-07T06:34:50;38.57;;;27.33;;
4833;SDS011;12895;51.064;7.028;2024-03-07T06:37:38;39.67;;;27.17;;
4833;SDS011;12895;51.064;7.028;2024-03-07T06:40:26;40.10;;;26.77;;
4833;SDS011;12895;51.064;7.028;2024-03-07T06:43:13;41.30;;;29.07;;
4833;SDS011;12895;51.064;7.028;2024-03-07T06:46:03;39.63;;;25.73;;
4833;SDS011;12895;51.064;7.028;2024-03-07T06:48:58;37.20;;;25.43;;
4833;SDS011;12895;51.064;7.028;2024-03-07T06:51:47;38.70;;;27.10;;
4833;SDS011;12895;51.064;7.028;2024-03-07T06:54:34;40.70;;;26.20;;
4833;SDS011;12895;51.064;7.028;2024-03-07T06:57:24;37.63;;;26.80;;
4833;SDS011;12895;51.064;7.028;2024-03-07T07:00:18;35.90;;;24.90;;
4833;SDS011;12895;51.064;7.028;2024-03-07T07:03:05;33.43;;;25.60;;
4833;SDS011;12895;51.064;7.028;2024-03-07T07:05:53;36.77;;;27.37;;
4833;SDS011;12895;51.064;7.028;2024-03-07T07:08:41;34.47;;;26.53;;
4833;SDS011;12895;51.064;7.028;2024-03-07T07:11:29;41.57;;;27.63;;
4833;SDS011;12895;51.064;7.028;2024-03-07T07:14:16;37.07;;;26.77;;
4833;SDS011;12895;51.064;7.028;2024-03-07T07:17:06;36.57;;;26.53;;
4833;SDS011;12895;51.064;7.028;2024-03-07T07:19:53;36.73;;;26.40;;
4833;SDS011;12895;51.064;7.028;2024-03-07T07:22:41;34.37;;;24.70;;
4833;SDS011;12895;51.064;7.028;2024-03-07T07:25:30;34.37;;;24.57;;
4833;SDS011;12895;51.064;7.028;2024-03-07T07:28:17;32.43;;;23.87;;
4833;SDS011;12895;51.064;7.028;2024-03-07T07:31:04;34.77;;;26.07;;
4833;SDS011;12895;51.064;7.028;2024-03-07T07:33:51;34.07;;;24.03;;
4833;SDS011;12895;51.064;7.028;2024-03-07T07:36:38;31.93;;;22.90;;
4833;SDS011;12895;51.064;7.028;2024-03-07T07:39:25;29.80;;;23.33;;
4833;SDS011;12895;51.064;7.028;2024-03-07T07:42:16;27.97;;;22.70;;
4833;SDS011;12895;51.064;7.028;2024-03-07T07:45:03;29.90;;;23.40;;
4833;SDS011;12895;51.064;7.028;2024-03-07T07:47:52;28.57;;;22.80;;
4833;SDS011;12895;51.064;7.028;2024-03-07T07:50:39;27.90;;;22.07;;
4833;SDS011;12895;51.064;7.028;2024-03-07T07:53:26;32.67;;;23.73;;
4833;SDS011;12895;51.064;7.028;2024-03-07T07:56:13;31.30;;;22.33;;
4833;SDS011;12895;51.064;7.028;2024-03-07T07:59:02;31.40;;;22.60;;
4833;SDS011;12895;51.064;7.028;2024-03-07T08:01:50;27.23;;;22.50;;
4833;SDS011;12895;51.064;7.028;2024-03-07T08:04:38;28.30;;;22.07;;
4833;SDS011;12895;51.064;7.028;2024-03-07T08:07:25;28.57;;;23.33;;
4833;SDS011;12895;51.064;7.028;2024-03-07T08:10:12;27.13;;;21.43;;
4833;SDS011;12895;51.064;7.028;2024-03-07T08:13:00;30.40;;;22.17;;
4833;SDS011;12895;51.064;7.028;2024-03-07T08:15:50;27.27;;;22.07;;
4833;SDS011;12895;51.064;7.028;2024-03-07T08:18:42;26.63;;;21.50;;
4833;SDS011;12895;51.064;7.028;2024-03-07T08:21:34;30.40;;;22.07;;
4833;SDS011;12895;51.064;7.028;2024-03-07T08:24:33;25.33;;;20.47;;
4833;SDS011;12895;51.064;7.028;2024-03-07T08:27:31;23.57;;;19.90;;
4833;SDS011;12895;51.064;7.028;2024-03-07T08:30:28;27.17;;;21.90;;
4833;SDS011;12895;51.064;7.028;2024-03-07T08:33:43;25.93;;;20.87;;
4833;SDS011;12895;51.064;7.028;2024-03-07T08:36:36;26.77;;;20.57;;
4833;SDS011;12895;51.064;7.028;2024-03-07T08:39:42;26.33;;;20.50;;
4833;SDS011;12895;51.064;7.028;2024-03-07T08:42:47;29.77;;;22.17;;
4833;SDS011;12895;51.064;7.028;2024-03-07T08:46:01;26.50;;;20.60;;
4833;SDS011;12895;51.064;7.028;2024-03-07T08:49:01;23.50;;;19.00;;
4833;SDS011;12895;51.064;7.028;2024-03-07T08:51:54;27.47;;;20.20;;
4833;SDS011;12895;51.064;7.028;2024-03-07T08:54:43;29.73;;;20.73;;
4833;SDS011;12895;51.064;7.028;2024-03-07T08:57:31;23.80;;;18.77;;
4833;SDS011;12895;51.064;7.028;2024-03-07T09:00:29;23.73;;;18.70;;
4833;SDS011;12895;51.064;7.028;2024-03-07T09:03:20;21.93;;;19.50;;
4833;SDS011;12895;51.064;7.028;2024-03-07T09:06:13;23.30;;;18.23;;
4833;SDS011;12895;51.064;7.028;2024-03-07T09:09:04;23.23;;;19.27;;
4833;SDS011;12895;51.064;7.028;2024-03-07T09:11:55;24.73;;;20.30;;
4833;SDS011;12895;51.064;7.028;2024-03-07T09:14:51;26.30;;;19.10;;
4833;SDS011;12895;51.064;7.028;2024-03-07T09:17:43;24.07;;;19.07;;
4833;SDS011;12895;51.064;7.028;2024-03-07T09:20:32;26.00;;;19.70;;
4833;SDS011;12895;51.064;7.028;2024-03-07T09:23:21;22.90;;;19.70;;
4833;SDS011;12895;51.064;7.028;2024-03-07T09:26:23;24.17;;;19.50;;
4833;SDS011;12895;51.064;7.028;2024-03-07T09:29:11;23.30;;;19.00;;
4833;SDS011;12895;51.064;7.028;2024-03-07T09:32:05;25.63;;;19.57;;
4833;SDS011;12895;51.064;7.028;2024-03-07T09:35:13;26.83;;;19.70;;
4833;SDS011;12895;51.064;7.028;2024-03-07T09:38:10;22.67;;;17.67;;
4833;SDS011;12895;51.064;7.028;2024-03-07T09:41:01;21.30;;;17.50;;
4833;SDS011;12895;51.064;7.028;2024-03-07T09:43:49;26.17;;;18.40;;
4833;SDS011;12895;51.064;7.028;2024-03-07T09:46:45;26.90;;;18.43;;
4833;SDS011;12895;51.064;7.028;2024-03-07T09:49:35;23.80;;;18.70;;
4833;SDS011;12895;51.064;7.028;2024-03-07T09:52:32;21.67;;;18.20;;
4833;SDS011;12895;51.064;7.028;2024-03-07T09:55:24;23.00;;;19.13;;
4833;SDS011;12895;51.064;7.028;2024-03-07T09:58:23;23.90;;;18.60;;
4833;SDS011;12895;51.064;7.028;2024-03-07T10:01:25;23.00;;;18.43;;
4833;SDS011;12895;51.064;7.028;2024-03-07T10:04:22;22.63;;;17.67;;
4833;SDS011;12895;51.064;7.028;2024-03-07T10:07:24;24.20;;;18.07;;
4833;SDS011;12895;51.064;7.028;2024-03-07T10:10:11;26.23;;;18.70;;
4833;SDS011;12895;51.064;7.028;2024-03-07T10:12:58;21.53;;;18.73;;
4833;SDS011;12895;51.064;7.028;2024-03-07T10:15:46;22.03;;;18.43;;
4833;SDS011;12895;51.064;7.028;2024-03-07T10:18:39;21.90;;;18.93;;
4833;SDS011;12895;51.064;7.028;2024-03-07T10:21:29;23.57;;;19.00;;
4833;SDS011;12895;51.064;7.028;2024-03-07T10:24:17;21.47;;;18.43;;
4833;SDS011;12895;51.064;7.028;2024-03-07T10:27:04;20.73;;;18.13;;
4833;SDS011;12895;51.064;7.028;2024-03-07T10:29:51;21.80;;;18.60;;
4833;SDS011;12895;51.064;7.028;2024-03-07T10:32:41;23.70;;;20.33;;
4833;SDS011;12895;51.064;7.028;2024-03-07T10:35:28;22.67;;;19.27;;
4833;SDS011;12895;51.064;7.028;2024-03-07T10:38:15;24.10;;;18.57;;
4833;SDS011;12895;51.064;7.028;2024-03-07T10:41:05;20.97;;;17.80;;
4833;SDS011;12895;51.064;7.028;2024-03-07T10:43:54;21.57;;;18.33;;
4833;SDS011;12895;51.064;7.028;2024-03-07T10:46:44;25.57;;;19.93;;
4833;SDS011;12895;51.064;7.028;2024-03-07T10:49:40;24.93;;;20.97;;
4833;SDS011;12895;51.064;7.028;2024-03-07T10:52:37;21.90;;;18.57;;
4833;SDS011;12895;51.064;7.028;2024-03-07T10:55:30;21.60;;;18.00;;
4833;SDS011;12895;51.064;7.028;2024-03-07T10:58:24;23.53;;;18.43;;
4833;SDS011;12895;51.064;7.028;2024-03-07T11:01:17;19.83;;;17.47;;
4833;SDS011;12895;51.064;7.028;2024-03-07T11:04:07;20.07;;;17.07;;
4833;SDS011;12895;51.064;7.028;2024-03-07T11:06:57;21.00;;;17.47;;
4833;SDS011;12895;51.064;7.028;2024-03-07T11:09:44;20.70;;;16.80;;
4833;SDS011;12895;51.064;7.028;2024-03-07T11:12:32;19.53;;;15.83;;
4833;SDS011;12895;51.064;7.028;2024-03-07T11:15:20;19.00;;;16.33;;
4833;SDS011;12895;51.064;7.028;2024-03-07T11:18:11;17.53;;;15.67;;
4833;SDS011;12895;51.064;7.028;2024-03-07T11:20:59;17.23;;;15.53;;
4833;SDS011;12895;51.064;7.028;2024-03-07T11:23:47;20.73;;;16.20;;
4833;SDS011;12895;51.064;7.028;2024-03-07T11:26:35;23.33;;;17.33;;
4833;SDS011;12895;51.064;7.028;2024-03-07T11:29:46;18.70;;;16.40;;
4833;SDS011;12895;51.064;7.028;2024-03-07T11:32:38;20.40;;;16.93;;
4833;SDS011;12895;51.064;7.028;2024-03-07T11:35:35;18.57;;;16.57;;
4833;SDS011;12895;51.064;7.028;2024-03-07T11:38:30;16.73;;;14.93;;
4833;SDS011;12895;51.064;7.028;2024-03-07T11:41:21;17.67;;;15.80;;
4833;SDS011;12895;51.064;7.028;2024-03-07T11:44:08;19.00;;;15.70;;
4833;SDS011;12895;51.064;7.028;2024-03-07T11:46:58;19.00;;;16.03;;
4833;SDS011;12895;51.064;7.028;2024-03-07T11:49:45;18.60;;;15.37;;
4833;SDS011;12895;51.064;7.028;2024-03-07T11:52:34;18.30;;;15.60;;
4833;SDS011;12895;51.064;7.028;2024-03-07T11:55:23;15.47;;;13.83;;
4833;SDS011;12895;51.064;7.028;2024-03-07T11:58:12;15.30;;;13.77;;
4833;SDS011;12895;51.064;7.028;2024-03-07T12:01:04;19.57;;;15.30;;
4833;SDS011;12895;51.064;7.028;2024-03-07T12:03:51;19.80;;;14.93;;
4833;SDS011;12895;51.064;7.028;2024-03-07T12:06:38;17.20;;;14.37;;
4833;SDS011;12895;51.064;7.028;2024-03-07T12:09:26;14.40;;;12.90;;
4833;SDS011;12895;51.064;7.028;2024-03-07T12:12:13;16.73;;;14.63;;
4833;SDS011;12895;51.064;7.028;2024-03-07T12:15:04;15.40;;;13.90;;
4833;SDS011;12895;51.064;7.028;2024-03-07T12:17:56;16.50;;;14.67;;
4833;SDS011;12895;51.064;7.028;2024-03-07T12:20:44;15.63;;;13.60;;
4833;SDS011;12895;51.064;7.028;2024-03-07T12:23:37;14.47;;;13.00;;
4833;SDS011;12895;51.064;7.028;2024-03-07T12:26:26;15.80;;;13.93;;
4833;SDS011;12895;51.064;7.028;2024-03-07T12:29:15;14.90;;;13.40;;
4833;SDS011;12895;51.064;7.028;2024-03-07T12:32:07;13.90;;;12.50;;
4833;SDS011;12895;51.064;7.028;2024-03-07T12:34:56;13.40;;;12.00;;
4833;SDS011;12895;51.064;7.028;2024-03-07T12:37:43;13.37;;;11.43;;
4833;SDS011;12895;51.064;7.028;2024-03-07T12:40:30;12.60;;;11.17;;
4833;SDS011;12895;51.064;7.028;2024-03-07T12:43:19;11.37;;;10.20;;
4833;SDS011;12895;51.064;7.028;2024-03-07T12:46:07;12.43;;;10.30;;
4833;SDS011;12895;51.064;7.028;2024-03-07T12:49:00;12.30;;;11.20;;
4833;SDS011;12895;51.064;7.028;2024-03-07T12:51:47;12.27;;;11.07;;
4833;SDS011;12895;51.064;7.028;2024-03-07T12:54:36;12.37;;;11.17;;
4833;SDS011;12895;51.064;7.028;2024-03-07T12:57:26;11.80;;;10.70;;
4833;SDS011;12895;51.064;7.028;2024-03-07T13:00:14;12.10;;;10.90;;
4833;SDS011;12895;51.064;7.028;2024-03-07T13:03:04;11.63;;;10.50;;
4833;SDS011;12895;51.064;7.028;2024-03-07T13:05:53;11.63;;;10.47;;
4833;SDS011;12895;51.064;7.028;2024-03-07T13:08:40;12.57;;;11.40;;
4833;SDS011;12895;51.064;7.028;2024-03-07T13:11:27;12.77;;;11.47;;
4833;SDS011;12895;51.064;7.028;2024-03-07T13:14:20;11.73;;;10.63;;
4833;SDS011;12895;51.064;7.028;2024-03-07T13:17:07;11.87;;;10.57;;
4833;SDS011;12895;51.064;7.028;2024-03-07T13:19:54;13.47;;;12.17;;
4833;SDS011;12895;51.064;7.028;2024-03-07T13:22:47;15.47;;;12.83;;
4833;SDS011;12895;51.064;7.028;2024-03-07T13:25:34;12.70;;;11.50;;
4833;SDS011;12895;51.064;7.028;2024-03-07T13:28:21;13.00;;;11.53;;
4833;SDS011;12895;51.064;7.028;2024-03-07T13:31:14;14.07;;;12.60;;
4833;SDS011;12895;51.064;7.028;2024-03-07T13:34:13;13.60;;;12.17;;
4833;SDS011;12895;51.064;7.028;2024-03-07T13:37:03;13.50;;;11.20;;
4833;SDS011;12895;51.064;7.028;2024-03-07T13:39:57;12.93;;;11.63;;
4833;SDS011;12895;51.064;7.028;2024-03-07T13:43:10;13.83;;;12.53;;
4833;SDS011;12895;51.064;7.028;2024-03-07T13:46:11;13.47;;;12.17;;
4833;SDS011;12895;51.064;7.028;2024-03-07T13:49:02;13.00;;;11.80;;
4833;SDS011;12895;51.064;7.028;2024-03-07T13:52:01;13.50;;;12.20;;
4833;SDS011;12895;51.064;7.028;2024-03-07T13:54:57;12.53;;;11.33;;
4833;SDS011;12895;51.064;7.028;2024-03-07T13:57:46;15.60;;;11.90;;
4833;SDS011;12895;51.064;7.028;2024-03-07T14:00:47;13.20;;;11.90;;
4833;SDS011;12895;51.064;7.028;2024-03-07T14:04:07;13.23;;;11.27;;
4833;SDS011;12895;51.064;7.028;2024-03-07T14:07:33;13.00;;;11.63;;
4833;SDS011;12895;51.064;7.028;2024-03-07T14:18:18;13.63;;;12.20;;
4833;SDS011;12895;51.064;7.028;2024-03-07T14:31:49;12.03;;;10.83;;
4833;SDS011;12895;51.064;7.028;2024-03-07T14:34:45;10.90;;;9.80;;
4833;SDS011;12895;51.064;7.028;2024-03-07T14:37:45;10.33;;;9.33;;
4833;SDS011;12895;51.064;7.028;2024-03-07T14:40:39;11.03;;;10.00;;
4833;SDS011;12895;51.064;7.028;2024-03-07T14:43:26;11.30;;;10.30;;
4833;SDS011;12895;51.064;7.028;2024-03-07T14:46:26;11.87;;;10.67;;
4833;SDS011;12895;51.064;7.028;2024-03-07T14:49:16;10.97;;;9.97;;
4833;SDS011;12895;51.064;7.028;2024-03-07T14:52:04;10.83;;;9.73;;
4833;SDS011;12895;51.064;7.028;2024-03-07T14:54:56;10.00;;;9.00;;
4833;SDS011;12895;51.064;7.028;2024-03-07T14:57:43;10.40;;;9.40;;
4833;SDS011;12895;51.064;7.028;2024-03-07T15:00:31;10.60;;;9.47;;
4833;SDS011;12895;51.064;7.028;2024-03-07T15:03:20;9.77;;;8.87;;
4833;SDS011;12895;51.064;7.028;2024-03-07T15:06:07;9.63;;;8.67;;
4833;SDS011;12895;51.064;7.028;2024-03-07T15:08:54;11.10;;;9.63;;
4833;SDS011;12895;51.064;7.028;2024-03-07T15:11:41;10.30;;;9.30;;
4833;SDS011;12895;51.064;7.028;2024-03-07T15:14:39;8.97;;;8.17;;
4833;SDS011;12895;51.064;7.028;2024-03-07T15:17:28;12.80;;;9.80;;
4833;SDS011;12895;51.064;7.028;2024-03-07T15:20:17;12.53;;;9.77;;
4833;SDS011;12895;51.064;7.028;2024-03-07T15:23:08;13.17;;;10.30;;
4833;SDS011;12895;51.064;7.028;2024-03-07T15:25:57;13.00;;;10.70;;
4833;SDS011;12895;51.064;7.028;2024-03-07T15:28:48;12.30;;;11.00;;
4833;SDS011;12895;51.064;7.028;2024-03-07T15:31:34;13.07;;;11.70;;
4833;SDS011;12895;51.064;7.028;2024-03-07T15:34:21;12.57;;;11.30;;
4833;SDS011;12895;51.064;7.028;2024-03-07T15:37:17;13.50;;;11.80;;
4833;SDS011;12895;51.064;7.028;2024-03-07T15:40:09;15.70;;;13.00;;
4833;SDS011;12895;51.064;7.028;2024-03-07T15:42:58;14.60;;;12.70;;
4833;SDS011;12895;51.064;7.028;2024-03-07T15:45:47;13.83;;;11.13;;
4833;SDS011;12895;51.064;7.028;2024-03-07T15:48:36;14.07;;;12.10;;
4833;SDS011;12895;51.064;7.028;2024-03-07T15:51:26;14.00;;;10.90;;
4833;SDS011;12895;51.064;7.028;2024-03-07T15:54:15;12.57;;;10.83;;
4833;SDS011;12895;51.064;7.028;2024-03-07T15:57:04;13.60;;;11.17;;
4833;SDS011;12895;51.064;7.028;2024-03-07T15:59:52;13.03;;;11.73;;
4833;SDS011;12895;51.064;7.028;2024-03-07T16:02:39;13.60;;;12.20;;
4833;SDS011;12895;51.064;7.028;2024-03-07T16:05:26;13.10;;;11.20;;
4833;SDS011;12895;51.064;7.028;2024-03-07T16:08:15;13.23;;;11.93;;
4833;SDS011;12895;51.064;7.028;2024-03-07T16:11:04;12.50;;;11.30;;
4833;SDS011;12895;51.064;7.028;2024-03-07T16:13:53;12.60;;;11.40;;
4833;SDS011;12895;51.064;7.028;2024-03-07T16:16:40;13.40;;;11.97;;
4833;SDS011;12895;51.064;7.028;2024-03-07T16:19:28;13.23;;;11.83;;
4833;SDS011;12895;51.064;7.028;2024-03-07T16:22:15;12.17;;;10.80;;
4833;SDS011;12895;51.064;7.028;2024-03-07T16:25:02;12.10;;;10.80;;
4833;SDS011;12895;51.064;7.028;2024-03-07T16:27:57;12.67;;;11.37;;
4833;SDS011;12895;51.064;7.028;2024-03-07T16:30:46;12.23;;;10.93;;
4833;SDS011;12895;51.064;7.028;2024-03-07T16:33:36;13.10;;;11.80;;
4833;SDS011;12895;51.064;7.028;2024-03-07T16:36:28;12.23;;;10.73;;
4833;SDS011;12895;51.064;7.028;2024-03-07T16:39:18;12.40;;;11.13;;
4833;SDS011;12895;51.064;7.028;2024-03-07T16:42:05;12.73;;;11.40;;
4833;SDS011;12895;51.064;7.028;2024-03-07T16:45:00;13.63;;;11.10;;
4833;SDS011;12895;51.064;7.028;2024-03-07T16:47:53;15.03;;;12.10;;
4833;SDS011;12895;51.064;7.028;2024-03-07T16:50:43;15.27;;;12.40;;
4833;SDS011;12895;51.064;7.028;2024-03-07T16:53:45;17.27;;;12.37;;
4833;SDS011;12895;51.064;7.028;2024-03-07T16:56:35;12.50;;;11.20;;
4833;SDS011;12895;51.064;7.028;2024-03-07T16:59:23;17.40;;;13.37;;
4833;SDS011;12895;51.064;7.028;2024-03-07T17:02:16;13.43;;;11.33;;
4833;SDS011;12895;51.064;7.028;2024-03-07T17:05:06;16.67;;;13.90;;
4833;SDS011;12895;51.064;7.028;2024-03-07T17:11:43;16.03;;;12.13;;
4833;SDS011;12895;51.064;7.028;2024-03-07T17:14:51;14.90;;;12.20;;